Tignall, Georgia
Current Conditions -  °F | °C
As of 1:15 AM on Thursday 23 Oct 2014 (Local Time) from KIIY Reporting Station
Clear Clear  
Wind Chill: 10°   Ceiling: Unl
Heat Index: 10°   Visibility: 10mi
Dew Point:   Wind: 5mph
Humidity: 87%   Direction: 50°NE
Pressure: 30.11"   Gusts: NA
Location:  33.87°N, 82.74°W
Report Text: KIIY 230515Z AUTO 05004KT 10SM CLR 10/08 A3011 RMK AO2
Loading
Personal Weather Stations






























Interactive Weather Map
Tropical Storm Tracking
New forecast layout! Learn more

10-Day Weather Forecast

Advertisements
Track Severe Weather on mobile